Levittown, PR

3:41 PM AST on May 05, 2015 (GMT -0400)
KP4MP DAVIS | | Change Station
CLOSE
Current Station
Personal Weather Station
Location: Sabana Seca, TOA BAJA
Elevation: 17 ft
Nearby Weather Stations

Elev 17 ft 18.44 °N, 66.18 °W | Updated 9 seconds ago

Partly Cloudy
Partly Cloudy
86.5 °F
Feels Like 95 °F
N
6.9
Wind Variable Wind from NE
Gusts 14.0 mph

Today
High -- | Low -- °F
--% Chance of Precip.
Yesterday
High -- | Low -- °F
Precip. -- in
5:55 AM 6:47 PM
Full, 97% visible
Pressure 30.06 in
Visibility 9.0 miles
Clouds Few 4200 ft
Heat Index 95 °F
Dew Point 74 °F
Humidity 67%
Rainfall 0.00 in
Snow Depth Not available.
UV 8 out of 12
Pollen Not available.
Air Quality Not available.
Flu Activity Local Activity
METAR TJSJ 051856Z 07021G26KT 9SM FEW042 31/23 A3006 RMK AO2 PK WND 06026/1856 SLP178 HZ ALQDS T03060233

More Conditions Fewer Conditions

Pressure 30.06 in
Visibility 9.0 miles
Clouds Few 4200 ft
Heat Index 95 °F
Dew Point 74 °F
Humidity 67%
Rainfall 0.00 in
Snow Depth Not available.
UV 8 out of 12
Pollen Not available.
Air Quality Not available.
Flu Activity Local Activity
METAR TJSJ 051856Z 07021G26KT 9SM FEW042 31/23 A3006 RMK AO2 PK WND 06026/1856 SLP178 HZ ALQDS T03060233

More Conditions Fewer Conditions

10-Day Weather Forecast

Almanac

Astronomy

May. 05, 2015 Rise Set
Actual Time
Civil Twilight
Nautical Twilight
Astronomical Twilight
Moon
Length of Visible Light
Length of Day
Tomorrow will be .
, % of the Moon is Illuminated

Today's Extremes

State Highs State Lows

Community

WunderPhotos

Upload Photos

1,818,957 photos uploaded!

WunderBlogs® & News

Nearby

Air Quality

  Air Quality AQ Index Pollutant
Not available.

Snow Depth

Station Depth Elevation

Earthquake Activity

City Distance Mag. Time & Date
Minimum magnitude displayed is 2.5.

Coastal Water Temperatures

Place Temperature

Stations

Nearby Weather Stations

Station Location Temp. Windchill Dew Point Humidity Wind Precip. Elev Updated Type